Time;durP1;ratioP1;P1;durP2;ratioP2;P2;SDS_P1;SDS_P2;PMS_P1;PMS_P2;Temp;Humidity;BMP_temperature;BMP_pressure;BME280_temperature;BME280_humidity;BME280_pressure;Samples;Min_cycle;Max_cycle;Signal;HPM_P1;HPM_P2
2023/10/17 00:02:27;;;;;;;4.70;2.92;;;6.40;99.90;;;;;;5062970;28;20052;-57
2023/10/17 00:04:53;;;;;;;5.68;3.83;;;6.40;99.90;;;;;;5061621;28;20490;-58
2023/10/17 00:07:20;;;;;;;7.25;4.50;;;6.40;99.90;;;;;;5059517;28;20155;-57
2023/10/17 00:09:48;;;;;;;7.05;3.97;;;6.40;99.90;;;;;;5057344;28;20036;-53
2023/10/17 00:14:45;;;;;;;5.97;3.57;;;6.40;99.90;;;;;;5056204;28;20033;-55
2023/10/17 00:17:16;;;;;;;3.80;3.03;;;6.50;99.90;;;;;;5042019;28;21230;-57
2023/10/17 00:19:42;;;;;;;4.15;3.10;;;6.50;99.90;;;;;;5061800;28;20044;-55
2023/10/17 00:22:09;;;;;;;;;;;6.50;99.90;;;;;;5065482;28;20036;-58
2023/10/17 00:24:35;;;;;;;4.18;3.15;;;6.40;99.90;;;;;;5041332;28;19968;-58
2023/10/17 00:27:04;;;;;;;5.60;3.50;;;6.40;99.90;;;;;;5062937;28;20478;-53
2023/10/17 00:29:30;;;;;;;6.22;4.18;;;6.50;99.90;;;;;;5057287;28;20028;-56
2023/10/17 00:31:56;;;;;;;7.13;3.50;;;6.50;99.90;;;;;;5058701;28;20036;-56
2023/10/17 00:34:23;;;;;;;3.90;3.50;;;6.50;99.90;;;;;;5044588;28;20456;-56
2023/10/17 00:36:49;;;;;;;6.03;4.35;;;6.50;99.90;;;;;;5062848;28;20047;-56
2023/10/17 00:39:29;;;;;;;7.13;4.20;;;6.40;99.90;;;;;;5062656;28;20048;-56
2023/10/17 00:44:39;;;;;;;6.90;4.05;;;6.50;99.90;;;;;;5062069;28;20041;-57
2023/10/17 00:47:08;;;;;;;7.93;3.63;;;6.40;99.90;;;;;;5059090;28;20526;-56
2023/10/17 00:49:42;;;;;;;7.25;3.78;;;6.50;99.90;;;;;;5058224;28;20036;-57
2023/10/17 00:52:22;;;;;;;4.45;3.55;;;6.40;99.90;;;;;;5040032;28;20038;-57
2023/10/17 00:54:50;;;;;;;12.18;4.25;;;6.40;99.90;;;;;;5058005;28;20451;-55
2023/10/17 00:57:19;;;;;;;5.72;3.60;;;6.40;99.90;;;;;;5060890;28;20047;-56
2023/10/17 00:59:52;;;;;;;8.00;3.40;;;6.40;99.90;;;;;;5062756;28;20033;-57
2023/10/17 01:02:31;;;;;;;3.10;2.80;;;6.40;99.90;;;;;;5065081;28;20093;-56
2023/10/17 01:04:59;;;;;;;3.85;3.40;;;6.40;99.90;;;;;;5056958;28;20036;-55
2023/10/17 01:07:34;;;;;;;9.52;5.55;;;6.40;99.90;;;;;;5060430;28;20045;-56
2023/10/17 01:10:13;;;;;;;6.68;4.10;;;6.40;99.90;;;;;;5062882;28;20040;-55
2023/10/17 01:13:01;;;;;;;7.43;3.65;;;6.40;99.90;;;;;;5060227;28;20032;-54
2023/10/17 01:15:27;;;;;;;6.05;3.60;;;6.40;99.90;;;;;;5061234;28;20032;-57
2023/10/17 01:17:55;;;;;;;6.80;4.05;;;6.40;99.90;;;;;;5060885;28;20047;-52
2023/10/17 01:20:21;;;;;;;6.53;3.97;;;6.40;99.90;;;;;;5042988;28;20535;-55
2023/10/17 01:22:47;;;;;;;3.58;2.38;;;6.40;99.90;;;;;;5060718;28;20102;-52
2023/10/17 01:25:29;;;;;;;3.00;2.33;;;6.40;99.90;;;;;;5059945;28;20032;-54
2023/10/17 01:27:57;;;;;;;3.13;2.33;;;6.30;99.90;;;;;;5063175;28;20048;-55
2023/10/17 01:30:23;;;;;;;4.18;3.30;;;6.30;99.90;;;;;;5065252;28;20354;-57
2023/10/17 01:32:51;;;;;;;4.30;3.10;;;6.20;99.90;;;;;;5059967;28;20068;-58
2023/10/17 01:35:19;;;;;;;4.97;3.15;;;6.20;99.90;;;;;;5066141;28;20131;-55
2023/10/17 01:37:46;;;;;;;6.55;2.75;;;6.20;99.90;;;;;;5063859;28;20486;-57
2023/10/17 01:40:26;;;;;;;3.53;3.13;;;6.20;99.90;;;;;;5063091;28;20055;-56
2023/10/17 01:42:53;;;;;;;4.95;3.05;;;6.20;99.90;;;;;;5061373;28;20234;-57
2023/10/17 01:45:25;;;;;;;4.55;3.05;;;6.30;99.90;;;;;;5066297;28;20047;-56
2023/10/17 01:47:51;;;;;;;6.18;3.30;;;6.30;99.90;;;;;;5064198;28;20094;-55
2023/10/17 01:50:18;;;;;;;3.15;2.85;;;6.30;99.90;;;;;;5058906;28;20052;-57
2023/10/17 01:52:45;;;;;;;5.10;3.72;;;6.30;99.90;;;;;;5047272;28;20044;-56
2023/10/17 01:55:14;;;;;;;7.38;3.55;;;6.30;99.90;;;;;;5056256;28;20041;-57
2023/10/17 01:57:46;;;;;;;4.85;3.30;;;6.30;99.90;;;;;;5053429;28;20037;-57
2023/10/17 02:02:57;;;;;;;2.65;2.30;;;6.40;99.90;;;;;;5060171;28;20040;-57
2023/10/17 02:05:24;;;;;;;2.67;2.03;;;6.30;99.90;;;;;;5039296;28;20408;-55
2023/10/17 02:07:50;;;;;;;3.50;2.45;;;6.30;99.90;;;;;;5059865;28;20182;-57
2023/10/17 02:10:18;;;;;;;11.02;3.17;;;6.20;99.90;;;;;;5064363;28;20511;-56
2023/10/17 02:12:47;;;;;;;7.32;3.40;;;6.20;99.90;;;;;;5046649;28;20569;-57
2023/10/17 02:15:16;;;;;;;4.80;3.05;;;6.20;99.90;;;;;;5055973;28;20410;-57
2023/10/17 02:17:42;;;;;;;8.15;2.65;;;6.20;99.90;;;;;;5065941;28;20044;-58
2023/10/17 02:20:17;;;;;;;4.80;1.80;;;6.30;99.90;;;;;;5058427;28;20037;-57
2023/10/17 02:22:46;;;;;;;2.33;2.13;;;6.20;99.90;;;;;;5057956;28;20868;-58
2023/10/17 02:25:15;;;;;;;4.18;2.42;;;6.10;99.90;;;;;;5057620;28;20403;-57
2023/10/17 02:27:43;;;;;;;3.10;2.13;;;6.10;99.90;;;;;;5046824;28;20040;-56
2023/10/17 02:30:10;;;;;;;3.10;2.55;;;6.10;99.90;;;;;;5039094;28;20056;-58
2023/10/17 02:32:43;;;;;;;7.25;2.80;;;6.10;99.90;;;;;;5027361;28;20360;-58
2023/10/17 02:35:14;;;;;;;5.18;2.10;;;6.10;99.90;;;;;;5066114;28;20522;-57
2023/10/17 02:37:47;;;;;;;5.50;2.28;;;6.10;99.90;;;;;;5068301;28;20032;-58
2023/10/17 02:40:23;;;;;;;2.17;1.15;;;6.10;99.90;;;;;;5060063;28;20502;-57
2023/10/17 02:42:49;;;;;;;3.33;2.08;;;6.00;99.90;;;;;;5050356;28;20211;-58
2023/10/17 02:45:27;;;;;;;3.55;2.47;;;6.00;99.90;;;;;;5067959;28;20089;-57
2023/10/17 02:47:57;;;;;;;2.95;2.42;;;6.00;99.90;;;;;;5046519;28;20044;-57
2023/10/17 02:50:42;;;;;;;3.88;2.45;;;6.00;99.90;;;;;;5060815;28;20041;-58
2023/10/17 02:53:14;;;;;;;5.93;2.17;;;6.00;99.90;;;;;;5067381;28;20068;-57
2023/10/17 02:55:40;;;;;;;6.43;2.55;;;6.00;99.90;;;;;;5064513;28;20206;-57
2023/10/17 02:58:05;;;;;;;4.53;1.97;;;6.00;99.90;;;;;;5063438;28;20108;-58
2023/10/17 03:00:34;;;;;;;5.10;2.22;;;6.00;99.90;;;;;;5051049;28;20032;-57
2023/10/17 03:03:00;;;;;;;2.78;1.88;;;5.90;99.90;;;;;;5062233;28;20109;-58
2023/10/17 03:05:27;;;;;;;3.08;2.50;;;5.90;99.90;;;;;;5063774;28;20465;-57
2023/10/17 03:07:53;;;;;;;3.80;2.85;;;5.90;99.90;;;;;;5064817;28;20044;-58
2023/10/17 03:10:42;;;;;;;6.35;2.40;;;5.90;99.90;;;;;;5061886;28;20048;-57
2023/10/17 03:13:22;;;;;;;4.07;1.52;;;5.90;99.90;;;;;;5063473;28;20040;-57
2023/10/17 03:15:53;;;;;;;3.75;1.90;;;5.90;99.90;;;;;;5063864;28;20530;-57
2023/10/17 03:18:19;;;;;;;3.25;2.25;;;5.80;99.90;;;;;;5059655;28;20051;-57
2023/10/17 03:20:51;;;;;;;3.25;1.92;;;5.80;99.90;;;;;;5058395;28;20439;-58
2023/10/17 03:23:28;;;;;;;6.18;2.85;;;5.80;99.90;;;;;;5064058;28;20040;-58
2023/10/17 03:26:00;;;;;;;3.65;2.63;;;5.80;99.90;;;;;;5061140;28;20317;-57
2023/10/17 03:28:33;;;;;;;5.07;2.15;;;5.90;99.90;;;;;;5062344;28;20067;-57
2023/10/17 03:30:59;;;;;;;2.13;1.67;;;5.80;99.90;;;;;;5070443;28;20122;-56
2023/10/17 03:33:29;;;;;;;6.83;1.90;;;5.70;99.90;;;;;;5062818;28;20149;-55
2023/10/17 03:38:31;;;;;;;2.65;2.45;;;5.70;99.90;;;;;;5064965;28;20423;-52
2023/10/17 03:41:04;;;;;;;4.63;1.85;;;5.70;99.90;;;;;;5067537;28;20117;-57
2023/10/17 03:43:37;;;;;;;2.72;1.17;;;5.70;99.90;;;;;;5062369;28;20527;-56
2023/10/17 03:46:07;;;;;;;1.38;0.60;;;5.60;99.90;;;;;;5068090;28;20064;-55
2023/10/17 03:48:36;;;;;;;3.05;1.40;;;5.50;99.90;;;;;;5064517;28;20055;-55
2023/10/17 03:53:32;;;;;;;2.70;1.90;;;5.50;99.90;;;;;;5059667;28;20056;-54
2023/10/17 03:56:01;;;;;;;3.15;1.35;;;5.50;99.90;;;;;;5060623;28;20041;-58
2023/10/17 04:00:59;;;;;;;2.85;0.98;;;5.40;99.90;;;;;;5057432;28;20173;-55
2023/10/17 04:03:25;;;;;;;1.05;0.95;;;5.30;99.90;;;;;;5051337;28;20037;-57
2023/10/17 04:06:41;;;;;;;1.50;0.90;;;5.20;99.90;;;;;;5063031;28;20094;-58
2023/10/17 04:08:56;;;;;;;2.28;1.00;;;5.20;99.90;;;;;;5055652;28;20041;-60
2023/10/17 04:13:53;;;;;;;1.80;1.57;;;5.10;99.90;;;;;;5066358;28;20129;-56
2023/10/17 04:16:32;;;;;;;5.57;1.98;;;5.10;99.90;;;;;;5062585;28;20531;-53
2023/10/17 04:19:00;;;;;;;4.15;2.50;;;5.10;99.90;;;;;;5063216;28;20067;-57
2023/10/17 04:24:26;;;;;;;2.47;1.85;;;5.20;99.90;;;;;;5063393;28;20062;-57
2023/10/17 04:26:44;;;;;;;4.28;2.22;;;5.20;99.90;;;;;;5054689;28;20069;-57
2023/10/17 04:29:13;;;;;;;3.55;2.33;;;5.20;99.90;;;;;;5040289;28;20426;-56
2023/10/17 04:31:39;;;;;;;7.05;3.50;;;5.20;99.90;;;;;;5059720;28;20046;-56
2023/10/17 04:34:09;;;;;;;4.32;2.22;;;5.20;99.90;;;;;;5061139;28;20048;-57
2023/10/17 04:36:38;;;;;;;7.03;2.28;;;5.30;99.90;;;;;;5068016;28;20221;-57
2023/10/17 04:44:25;;;;;;;5.28;3.67;;;5.20;99.90;;;;;;5056636;28;20131;-56
2023/10/17 04:49:30;;;;;;;2.95;2.10;;;5.30;99.90;;;;;;5059203;28;20402;-54
2023/10/17 04:52:06;;;;;;;2.83;1.60;;;5.20;99.90;;;;;;5058295;28;20029;-58
2023/10/17 04:57:04;;;;;;;5.32;2.92;;;5.20;99.90;;;;;;5059527;28;20123;-57
2023/10/17 05:07:28;;;;;;;3.65;1.98;;;5.10;99.90;;;;;;5058938;28;20064;-57
2023/10/17 06:18:49;;;;;;;7.47;3.15;;;4.70;99.90;;;;;;5001737;28;20129;-57
2023/10/17 06:21:19;;;;;;;10.07;3.28;;;4.80;99.90;;;;;;5047021;28;20120;-58
2023/10/17 06:34:17;;;;;;;6.63;3.38;;;5.50;99.90;;;;;;5060254;28;20048;-56
2023/10/17 06:36:43;;;;;;;6.43;4.20;;;5.70;99.90;;;;;;5061924;28;20068;-56
2023/10/17 06:39:19;;;;;;;;;;;5.90;99.90;;;;;;5064291;28;20037;-56
2023/10/17 06:41:46;;;;;;;2.17;1.90;;;6.20;99.90;;;;;;5063690;28;20453;-57
2023/10/17 06:44:21;;;;;;;3.22;2.05;;;6.40;99.90;;;;;;5056902;28;20135;-57
2023/10/17 06:46:55;;;;;;;1.33;1.15;;;6.60;99.90;;;;;;5060409;28;20112;-57
2023/10/17 06:54:50;;;;;;;3.53;1.83;;;7.00;99.90;;;;;;5059880;28;20048;-59
2023/10/17 06:57:24;;;;;;;2.83;1.52;;;7.30;99.90;;;;;;5067415;28;20041;-58
2023/10/17 06:59:52;;;;;;;4.63;2.33;;;7.70;99.90;;;;;;5065547;28;20047;-57
2023/10/17 07:02:28;;;;;;;7.32;2.60;;;8.10;99.90;;;;;;5058318;28;20051;-57
2023/10/17 07:05:00;;;;;;;4.78;2.50;;;8.70;99.90;;;;;;5063485;28;20391;-56
2023/10/17 07:07:31;;;;;;;4.10;2.55;;;9.50;99.90;;;;;;5058533;28;20502;-56
2023/10/17 07:12:50;;;;;;;5.18;3.30;;;10.60;99.90;;;;;;5062835;28;20037;-56
2023/10/17 07:15:19;;;;;;;6.68;3.45;;;10.90;99.90;;;;;;5063196;28;20044;-56
2023/10/17 07:18:39;;;;;;;9.00;4.30;;;10.90;99.90;;;;;;5062206;28;20092;-59
2023/10/17 07:23:32;;;;;;;7.05;3.92;;;10.40;99.90;;;;;;4998625;28;20042;-58
2023/10/17 07:26:01;;;;;;;;;;;10.10;99.90;;;;;;4997113;28;20045;-58
2023/10/17 07:28:29;;;;;;;4.57;4.18;;;9.90;99.90;;;;;;5002201;28;19921;-58
2023/10/17 07:31:00;;;;;;;12.93;5.50;;;9.70;99.90;;;;;;5003740;28;20054;-59
2023/10/17 07:33:26;;;;;;;11.55;5.30;;;9.60;99.90;;;;;;5000603;28;20045;-56
2023/10/17 07:35:57;;;;;;;8.47;5.83;;;9.40;99.90;;;;;;4996556;28;20053;-57
2023/10/17 07:38:27;;;;;;;5.82;5.10;;;9.30;99.90;;;;;;5001458;28;20046;-57
2023/10/17 07:41:09;;;;;;;7.43;4.50;;;9.20;99.90;;;;;;4996360;28;20057;-57
2023/10/17 07:43:35;;;;;;;7.00;4.75;;;9.10;99.90;;;;;;4993589;28;20128;-58
2023/10/17 07:46:15;;;;;;;8.20;4.60;;;9.10;99.90;;;;;;4998665;28;20038;-58
2023/10/17 07:48:48;;;;;;;6.43;4.57;;;9.10;99.90;;;;;;4995811;28;20053;-57
2023/10/17 07:51:15;;;;;;;7.50;3.38;;;9.00;99.90;;;;;;5000834;28;20030;-56
2023/10/17 07:53:47;;;;;;;7.80;4.03;;;9.00;99.90;;;;;;5001586;28;20054;-56
2023/10/17 07:56:24;;;;;;;6.03;3.80;;;9.00;99.90;;;;;;4992818;28;20088;-57
2023/10/17 07:58:57;;;;;;;5.07;3.55;;;9.00;99.90;;;;;;4997035;28;20042;-56
2023/10/17 08:01:38;;;;;;;7.05;3.75;;;8.90;99.90;;;;;;5055502;28;20127;-55
2023/10/17 08:06:58;;;;;;;4.82;4.28;;;8.90;99.90;;;;;;5043269;28;20086;-57
2023/10/17 08:09:24;;;;;;;6.73;4.03;;;8.90;99.90;;;;;;5058678;28;20117;-57
2023/10/17 08:11:59;;;;;;;6.45;3.53;;;8.90;99.90;;;;;;5044880;28;20037;-57
2023/10/17 08:14:34;;;;;;;5.93;4.30;;;8.90;99.90;;;;;;5061292;28;20033;-58
2023/10/17 08:17:00;;;;;;;8.20;3.58;;;9.00;99.90;;;;;;5059163;28;20045;-58
2023/10/17 08:20:00;;;;;;;5.20;3.35;;;9.10;99.90;;;;;;5061302;28;20037;-58
2023/10/17 08:22:17;;;;;;;5.85;3.75;;;9.20;99.90;;;;;;5062906;28;20063;-58
2023/10/17 08:24:51;;;;;;;4.37;2.87;;;9.20;99.90;;;;;;5062928;28;20094;-58
2023/10/17 08:30:05;;;;;;;6.60;2.97;;;9.30;99.90;;;;;;5062015;28;20037;-56
2023/10/17 08:32:47;;;;;;;8.75;2.25;;;9.40;99.90;;;;;;5058965;28;20075;-60
2023/10/17 08:35:25;;;;;;;7.65;2.90;;;9.50;99.90;;;;;;5056038;28;21057;-59
2023/10/17 08:37:52;;;;;;;5.75;1.95;;;9.60;99.90;;;;;;5055790;28;20506;-57
2023/10/17 08:43:17;;;;;;;5.90;2.25;;;9.80;99.90;;;;;;5054048;28;20052;-58
2023/10/17 08:45:46;;;;;;;3.80;2.22;;;10.00;99.90;;;;;;5057651;28;20507;-56
2023/10/17 08:48:11;;;;;;;3.50;2.03;;;10.10;99.90;;;;;;5061117;28;20039;-58
2023/10/17 08:50:39;;;;;;;4.40;1.42;;;10.20;99.90;;;;;;5059923;28;20461;-55
2023/10/17 08:55:44;;;;;;;4.65;1.35;;;10.40;99.90;;;;;;5053868;28;20431;-57
2023/10/17 08:58:10;;;;;;;4.00;1.40;;;10.50;99.90;;;;;;5058414;28;20035;-57
2023/10/17 09:01:26;;;;;;;3.53;0.98;;;10.60;99.90;;;;;;5056036;28;20047;-57
2023/10/17 09:03:35;;;;;;;5.82;1.15;;;10.70;99.90;;;;;;5041480;28;20052;-56
2023/10/17 09:08:52;;;;;;;5.13;0.85;;;10.80;99.90;;;;;;5053686;28;20036;-56
2023/10/17 09:11:31;;;;;;;3.95;1.00;;;10.90;99.90;;;;;;5056703;28;20044;-56
2023/10/17 09:16:50;;;;;;;3.72;1.20;;;11.10;99.90;;;;;;5056761;28;20048;-57
2023/10/17 09:19:17;;;;;;;1.90;0.77;;;11.20;99.90;;;;;;5058499;28;20098;-57
2023/10/17 09:21:47;;;;;;;3.53;0.93;;;11.20;99.90;;;;;;5054040;28;20040;-56
2023/10/17 09:24:33;;;;;;;7.72;1.02;;;11.30;99.90;;;;;;5052543;28;20423;-58
2023/10/17 09:26:58;;;;;;;2.60;0.77;;;11.40;99.90;;;;;;5058311;28;20130;-56
2023/10/17 09:29:27;;;;;;;2.28;0.60;;;11.50;99.90;;;;;;5040187;28;20170;-55
2023/10/17 09:31:54;;;;;;;2.55;0.45;;;11.50;99.90;;;;;;5055930;28;20514;-57
2023/10/17 09:34:24;;;;;;;3.88;0.50;;;11.50;99.90;;;;;;5056517;28;20090;-56
2023/10/17 09:36:51;;;;;;;1.10;0.40;;;11.60;99.90;;;;;;5055995;28;20044;-58
2023/10/17 09:39:24;;;;;;;3.15;0.77;;;11.60;99.90;;;;;;5057606;28;20310;-57
2023/10/17 09:41:50;;;;;;;2.25;0.73;;;11.60;99.90;;;;;;5056162;28;20033;-56
2023/10/17 09:44:16;;;;;;;5.73;0.60;;;11.60;99.90;;;;;;5061167;28;20035;-57
2023/10/17 09:46:46;;;;;;;2.03;0.43;;;11.60;99.90;;;;;;5056529;28;20950;-57
2023/10/17 09:49:14;;;;;;;5.75;0.35;;;11.70;99.90;;;;;;5058478;28;20047;-57
2023/10/17 09:51:42;;;;;;;4.40;0.43;;;11.80;99.90;;;;;;5056810;28;20048;-57
2023/10/17 09:54:10;;;;;;;1.70;0.30;;;11.80;99.90;;;;;;5056657;28;20158;-57
2023/10/17 09:56:42;;;;;;;1.65;0.30;;;11.80;99.90;;;;;;5061841;28;20036;-59
2023/10/17 09:59:13;;;;;;;1.85;0.30;;;11.80;99.90;;;;;;5063585;28;20044;-57
2023/10/17 10:01:40;;;;;;;2.88;0.45;;;11.90;99.90;;;;;;5063902;28;20087;-56
2023/10/17 10:04:07;;;;;;;2.45;0.60;;;12.00;99.90;;;;;;5064530;28;20045;-58
2023/10/17 10:06:34;;;;;;;4.78;0.35;;;12.00;99.90;;;;;;5064255;28;20048;-56
2023/10/17 10:09:05;;;;;;;11.88;0.38;;;12.00;99.90;;;;;;5063346;28;20036;-58
2023/10/17 10:11:49;;;;;;;2.20;0.30;;;12.10;99.90;;;;;;5045726;28;20040;-56
2023/10/17 10:14:34;;;;;;;4.80;0.50;;;12.10;99.90;;;;;;5046704;28;20047;-55
2023/10/17 10:17:04;;;;;;;3.13;0.28;;;12.10;99.90;;;;;;5063740;28;20032;-58
2023/10/17 10:19:42;;;;;;;1.38;0.40;;;12.10;99.90;;;;;;5046363;28;20415;-58
2023/10/17 10:22:10;;;;;;;4.32;0.40;;;12.20;99.90;;;;;;5061737;28;20047;-58
2023/10/17 10:24:36;;;;;;;3.08;0.22;;;12.30;99.90;;;;;;5064181;28;20094;-57
2023/10/17 10:27:14;;;;;;;3.15;0.43;;;12.40;99.90;;;;;;5062160;28;20040;-59
2023/10/17 10:29:41;;;;;;;1.02;0.20;;;12.40;99.90;;;;;;5058733;28;20395;-57
2023/10/17 10:32:40;;;;;;;0.85;0.25;;;12.50;99.90;;;;;;5060580;28;20247;-58
2023/10/17 10:35:06;;;;;;;1.27;0.20;;;12.40;99.90;;;;;;5018858;28;20431;-58
2023/10/17 10:37:49;;;;;;;2.10;0.20;;;12.50;99.90;;;;;;5057904;28;20040;-58
2023/10/17 10:40:22;;;;;;;7.53;1.00;;;12.50;99.90;;;;;;5046352;28;20465;-57
2023/10/17 10:42:50;;;;;;;3.67;0.25;;;12.50;99.90;;;;;;5039466;28;20090;-58
2023/10/17 10:45:24;;;;;;;5.82;0.68;;;12.60;99.90;;;;;;5055396;28;20029;-59
2023/10/17 10:47:57;;;;;;;1.73;0.20;;;12.50;99.90;;;;;;5058217;28;20032;-57
2023/10/17 10:50:27;;;;;;;2.95;0.40;;;12.50;99.90;;;;;;5043562;28;20040;-57
2023/10/17 10:52:53;;;;;;;4.32;0.38;;;12.50;99.90;;;;;;5059176;28;20411;-58
2023/10/17 10:55:20;;;;;;;2.25;0.47;;;12.50;99.90;;;;;;5039084;28;20036;-56
2023/10/17 10:57:46;;;;;;;;;;;12.50;99.90;;;;;;5053545;28;20391;-58
2023/10/17 11:00:15;;;;;;;2.90;0.65;;;12.50;99.90;;;;;;5061563;28;20287;-59
2023/10/17 11:02:42;;;;;;;4.78;0.57;;;12.50;99.90;;;;;;5065512;28;20048;-59
2023/10/17 11:05:12;;;;;;;2.30;0.30;;;12.50;99.90;;;;;;5067334;28;20521;-59
2023/10/17 11:07:38;;;;;;;2.67;0.30;;;12.60;99.90;;;;;;5037026;28;20091;-58
2023/10/17 11:10:14;;;;;;;1.15;0.20;;;12.70;99.90;;;;;;5067368;28;20142;-55
2023/10/17 11:12:50;;;;;;;1.55;0.60;;;12.70;99.90;;;;;;5057837;28;20121;-58
2023/10/17 11:15:18;;;;;;;2.50;0.20;;;12.80;99.90;;;;;;5067248;28;20036;-58
2023/10/17 11:17:45;;;;;;;0.93;0.30;;;12.90;99.90;;;;;;5057429;28;20116;-59
2023/10/17 11:20:17;;;;;;;;;;;12.90;99.90;;;;;;5044045;28;20127;-58
2023/10/17 11:22:49;;;;;;;4.97;0.40;;;12.90;99.90;;;;;;5067202;28;20015;-58
2023/10/17 11:25:26;;;;;;;1.40;0.43;;;12.70;99.90;;;;;;5067324;28;20048;-57
2023/10/17 11:28:02;;;;;;;2.38;0.47;;;12.70;99.90;;;;;;5038823;28;20542;-56
2023/10/17 11:30:35;;;;;;;2.07;0.60;;;12.60;99.90;;;;;;5064562;28;20491;-59
2023/10/17 11:33:04;;;;;;;0.75;0.20;;;12.70;99.90;;;;;;5065283;28;20048;-58
2023/10/17 11:35:37;;;;;;;0.28;0.10;;;12.90;99.90;;;;;;5062937;28;20037;-60
2023/10/17 11:38:03;;;;;;;4.72;0.47;;;13.00;99.90;;;;;;5061640;28;20056;-58
2023/10/17 11:40:30;;;;;;;;;;;13.10;99.90;;;;;;5035374;28;20064;-59
2023/10/17 11:42:58;;;;;;;1.10;0.30;;;13.10;99.40;;;;;;5055850;28;19924;-58
2023/10/17 11:45:37;;;;;;;2.90;0.40;;;13.10;99.90;;;;;;5066583;28;20576;-58
2023/10/17 11:48:29;;;;;;;2.72;0.55;;;13.20;99.40;;;;;;5041695;28;20041;-59
2023/10/17 11:51:18;;;;;;;0.95;0.20;;;13.20;99.70;;;;;;5066897;28;20040;-59
2023/10/17 11:54:03;;;;;;;7.03;0.40;;;13.30;99.60;;;;;;5061601;28;20490;-59
2023/10/17 11:56:31;;;;;;;4.75;0.45;;;13.20;99.50;;;;;;5059306;28;20047;-58
2023/10/17 11:58:56;;;;;;;3.95;0.47;;;13.20;99.30;;;;;;5043334;28;20055;-57
2023/10/17 12:01:22;;;;;;;3.97;1.05;;;13.10;99.80;;;;;;5067120;28;20044;-59
2023/10/17 12:03:52;;;;;;;2.55;0.40;;;13.10;99.80;;;;;;5055670;28;20037;-57
2023/10/17 12:06:18;;;;;;;2.78;0.50;;;13.10;99.40;;;;;;5054687;28;20051;-57
2023/10/17 12:08:43;;;;;;;1.10;0.40;;;13.10;99.40;;;;;;5059594;28;20417;-59
2023/10/17 12:11:09;;;;;;;1.52;0.47;;;13.20;99.90;;;;;;5059027;28;20037;-59
2023/10/17 12:13:35;;;;;;;3.90;0.50;;;13.20;99.90;;;;;;5054770;28;20454;-59
2023/10/17 12:16:08;;;;;;;6.03;1.15;;;13.20;99.50;;;;;;5060800;28;20438;-59
2023/10/17 12:18:38;;;;;;;2.90;0.40;;;13.30;99.60;;;;;;5065400;28;20044;-59
2023/10/17 12:21:04;;;;;;;3.72;0.82;;;13.30;99.10;;;;;;5066622;28;20130;-59
2023/10/17 12:23:30;;;;;;;5.60;0.50;;;13.20;99.00;;;;;;5065479;28;20090;-57
2023/10/17 12:26:01;;;;;;;5.63;0.80;;;13.10;98.10;;;;;;5065896;28;20033;-59
2023/10/17 12:28:27;;;;;;;2.30;0.50;;;13.10;98.60;;;;;;5062266;28;20036;-59
2023/10/17 12:30:54;;;;;;;2.42;0.40;;;13.10;98.10;;;;;;5066111;28;20079;-57
2023/10/17 12:33:23;;;;;;;2.53;0.60;;;13.10;98.60;;;;;;5064786;28;20132;-59
2023/10/17 12:35:50;;;;;;;2.35;0.65;;;13.10;98.70;;;;;;5056037;28;20120;-58
2023/10/17 12:38:33;;;;;;;4.57;0.70;;;13.10;98.60;;;;;;5053795;28;20507;-56
2023/10/17 12:40:58;;;;;;;3.85;0.47;;;13.10;98.60;;;;;;5057204;28;20037;-59
2023/10/17 12:43:24;;;;;;;4.10;0.52;;;13.10;98.50;;;;;;5065668;28;20113;-60
2023/10/17 12:45:50;;;;;;;2.13;0.40;;;13.00;98.70;;;;;;5065969;28;20044;-59
2023/10/17 12:48:16;;;;;;;1.65;0.30;;;13.00;98.40;;;;;;5064963;28;20039;-59
2023/10/17 12:50:44;;;;;;;2.97;0.75;;;13.00;98.70;;;;;;5047398;28;20620;-59
2023/10/17 12:53:13;;;;;;;2.25;0.70;;;13.20;99.00;;;;;;5059450;28;20064;-59
2023/10/17 12:55:40;;;;;;;6.80;0.40;;;13.20;99.40;;;;;;5064926;28;20028;-56
2023/10/17 12:58:17;;;;;;;3.67;0.45;;;13.30;98.60;;;;;;5065505;28;20090;-59
2023/10/17 13:00:46;;;;;;;3.78;0.43;;;13.30;99.00;;;;;;5064980;28;20115;-60
2023/10/17 13:03:12;;;;;;;3.00;0.52;;;13.40;99.10;;;;;;5065526;28;20147;-59
2023/10/17 13:05:37;;;;;;;2.72;0.80;;;13.40;99.00;;;;;;5059718;28;20115;-60
2023/10/17 13:08:04;;;;;;;4.00;0.65;;;13.40;98.40;;;;;;5061531;28;20029;-59
2023/10/17 13:10:30;;;;;;;2.65;0.45;;;13.30;99.00;;;;;;5064656;28;20040;-57
2023/10/17 13:12:58;;;;;;;4.22;0.40;;;13.30;98.80;;;;;;5058655;28;20044;-59
2023/10/17 13:15:25;;;;;;;1.60;0.30;;;13.40;99.20;;;;;;5057417;28;20071;-59
2023/10/17 13:17:54;;;;;;;2.97;0.68;;;13.40;99.00;;;;;;5061312;28;20024;-59
2023/10/17 13:20:33;;;;;;;1.08;0.30;;;13.40;98.40;;;;;;5064963;28;20032;-59
2023/10/17 13:23:03;;;;;;;3.60;0.52;;;13.30;98.30;;;;;;5057862;28;20457;-59
2023/10/17 13:25:36;;;;;;;3.42;0.60;;;13.30;98.50;;;;;;5063116;28;20048;-58
2023/10/17 13:28:03;;;;;;;1.60;0.30;;;13.30;99.10;;;;;;5060018;28;20337;-59
2023/10/17 13:30:29;;;;;;;2.33;0.30;;;13.40;98.60;;;;;;5062803;28;20750;-58
2023/10/17 13:32:54;;;;;;;2.03;0.20;;;13.40;98.80;;;;;;5058014;28;20032;-59
2023/10/17 13:35:23;;;;;;;4.25;0.43;;;13.50;98.90;;;;;;5059287;28;20045;-60
2023/10/17 13:37:52;;;;;;;7.25;0.40;;;13.50;98.30;;;;;;5056183;28;20533;-59
2023/10/17 13:40:22;;;;;;;1.30;0.30;;;13.50;98.30;;;;;;5051353;28;20035;-59
2023/10/17 13:42:55;;;;;;;3.80;0.55;;;13.40;98.70;;;;;;5062048;28;20032;-59
2023/10/17 13:45:22;;;;;;;2.03;0.38;;;13.40;98.60;;;;;;5057948;28;20051;-59
2023/10/17 13:47:52;;;;;;;3.88;0.30;;;13.50;98.80;;;;;;5064142;28;20143;-60
2023/10/17 13:50:19;;;;;;;1.67;0.52;;;13.60;99.10;;;;;;5064428;28;20550;-59
2023/10/17 13:52:46;;;;;;;2.83;0.30;;;13.50;98.40;;;;;;5056610;28;20033;-59
2023/10/17 13:55:14;;;;;;;1.13;0.25;;;13.50;98.80;;;;;;5044407;28;20459;-59
2023/10/17 13:57:43;;;;;;;1.52;0.30;;;13.60;98.90;;;;;;5057358;28;20040;-59
2023/10/17 14:00:19;;;;;;;2.53;0.60;;;13.40;98.20;;;;;;5054617;28;20033;-59
2023/10/17 14:02:47;;;;;;;2.60;0.30;;;13.40;98.40;;;;;;5060862;28;20044;-59
2023/10/17 14:05:13;;;;;;;3.38;0.50;;;13.40;98.40;;;;;;5070104;28;20119;-57
2023/10/17 14:07:39;;;;;;;4.38;0.47;;;13.30;98.60;;;;;;5062401;28;20068;-59
2023/10/17 14:10:09;;;;;;;1.50;0.30;;;13.30;98.40;;;;;;5062355;28;20033;-59
2023/10/17 14:12:39;;;;;;;4.63;0.70;;;13.20;98.30;;;;;;5062094;28;20038;-56
2023/10/17 14:15:08;;;;;;;1.30;0.32;;;13.10;98.60;;;;;;5045920;28;20123;-59
2023/10/17 14:17:35;;;;;;;2.28;0.63;;;13.00;98.60;;;;;;5062052;28;20068;-59
2023/10/17 14:20:15;;;;;;;3.17;0.68;;;13.00;98.50;;;;;;5061756;28;20033;-60
2023/10/17 14:28:11;;;;;;;1.45;0.40;;;12.90;98.60;;;;;;5059950;28;20537;-58
2023/10/17 14:30:39;;;;;;;5.18;0.63;;;12.90;98.40;;;;;;5065250;28;20044;-57
2023/10/17 14:33:05;;;;;;;1.52;0.60;;;12.80;99.10;;;;;;5065498;28;20064;-55
2023/10/17 14:35:34;;;;;;;2.45;0.80;;;12.80;99.20;;;;;;5063098;28;20044;-59
2023/10/17 14:38:00;;;;;;;2.38;0.60;;;12.70;99.20;;;;;;5061888;28;20041;-54
2023/10/17 14:40:29;;;;;;;3.20;1.08;;;12.80;99.30;;;;;;5060556;28;20040;-56
2023/10/17 14:42:55;;;;;;;2.55;0.60;;;12.80;99.10;;;;;;5041306;28;20162;-57
2023/10/17 14:45:24;;;;;;;1.13;0.40;;;12.80;99.40;;;;;;5064935;28;20590;-59
2023/10/17 14:47:50;;;;;;;3.28;0.70;;;12.80;99.30;;;;;;5065005;28;20366;-58
2023/10/17 14:50:16;;;;;;;;;;;12.80;99.50;;;;;;5062554;28;20501;-59
2023/10/17 14:52:41;;;;;;;3.75;0.70;;;12.80;99.30;;;;;;5066800;28;19924;-59
2023/10/17 14:55:14;;;;;;;1.55;0.57;;;12.80;99.50;;;;;;5065139;28;20032;-57
2023/10/17 14:57:41;;;;;;;4.30;0.73;;;12.70;99.40;;;;;;5061384;28;20045;-59
2023/10/17 15:00:11;;;;;;;3.15;0.45;;;12.60;99.00;;;;;;5067210;28;20488;-58
2023/10/17 15:02:39;;;;;;;4.40;0.50;;;12.50;99.00;;;;;;5059585;28;20040;-58
2023/10/17 15:05:07;;;;;;;1.83;0.40;;;12.50;99.50;;;;;;5062729;28;20050;-54
2023/10/17 15:07:34;;;;;;;0.80;0.40;;;12.50;99.40;;;;;;5064622;28;20036;-58
2023/10/17 15:10:00;;;;;;;5.78;0.70;;;12.50;99.50;;;;;;5054197;28;20055;-58
2023/10/17 15:12:25;;;;;;;3.58;0.57;;;12.60;99.40;;;;;;5062793;28;20041;-58
2023/10/17 15:14:51;;;;;;;3.10;0.80;;;12.70;99.30;;;;;;5062530;28;20044;-57
2023/10/17 15:17:18;;;;;;;2.70;0.60;;;12.70;99.30;;;;;;5062357;28;20057;-57
2023/10/17 15:19:44;;;;;;;5.05;0.50;;;12.70;99.20;;;;;;5064759;28;20044;-59
2023/10/17 15:22:09;;;;;;;3.47;0.50;;;12.60;99.30;;;;;;5045076;28;20441;-59
2023/10/17 15:24:35;;;;;;;7.32;0.70;;;12.50;99.20;;;;;;5061710;28;20111;-57
2023/10/17 15:27:02;;;;;;;2.45;0.77;;;12.40;99.50;;;;;;5061821;28;20028;-56
2023/10/17 15:29:28;;;;;;;3.65;0.57;;;12.30;99.90;;;;;;5062139;28;20032;-55
2023/10/17 15:31:53;;;;;;;1.63;0.52;;;12.30;99.90;;;;;;5044744;28;20041;-53
2023/10/17 15:34:21;;;;;;;5.10;0.68;;;12.10;99.80;;;;;;5060134;28;20036;-55
2023/10/17 15:36:47;;;;;;;3.92;0.45;;;12.10;99.90;;;;;;5061500;28;20072;-58
2023/10/17 15:39:14;;;;;;;22.58;1.02;;;12.00;99.90;;;;;;5062749;28;20045;-52
2023/10/17 15:41:41;;;;;;;15.93;1.05;;;11.80;99.90;;;;;;5058943;28;20045;-58